sensor_id;sensor_type;location;lat;lon;timestamp;P1;durP1;ratioP1;P2;durP2;ratioP2
17725;SDS011;8983;53.156;17.960;2023-04-24T00:01:07;11.03;;;8.23;;
17725;SDS011;8983;53.156;17.960;2023-04-24T00:03:35;14.43;;;9.13;;
17725;SDS011;8983;53.156;17.960;2023-04-24T00:06:05;11.83;;;8.67;;
17725;SDS011;8983;53.156;17.960;2023-04-24T00:08:34;12.70;;;8.23;;
17725;SDS011;8983;53.156;17.960;2023-04-24T00:11:02;12.30;;;9.27;;
17725;SDS011;8983;53.156;17.960;2023-04-24T00:13:32;9.17;;;8.13;;
17725;SDS011;8983;53.156;17.960;2023-04-24T00:16:00;11.57;;;8.30;;
17725;SDS011;8983;53.156;17.960;2023-04-24T00:18:28;11.03;;;8.53;;
17725;SDS011;8983;53.156;17.960;2023-04-24T00:20:56;14.87;;;8.87;;
17725;SDS011;8983;53.156;17.960;2023-04-24T00:23:24;11.37;;;8.40;;
17725;SDS011;8983;53.156;17.960;2023-04-24T00:25:52;11.47;;;8.93;;
17725;SDS011;8983;53.156;17.960;2023-04-24T00:28:21;11.83;;;8.37;;
17725;SDS011;8983;53.156;17.960;2023-04-24T00:30:50;12.80;;;8.63;;
17725;SDS011;8983;53.156;17.960;2023-04-24T00:33:18;13.33;;;9.33;;
17725;SDS011;8983;53.156;17.960;2023-04-24T00:35:46;12.80;;;9.70;;
17725;SDS011;8983;53.156;17.960;2023-04-24T00:38:15;11.90;;;8.87;;
17725;SDS011;8983;53.156;17.960;2023-04-24T00:40:43;14.23;;;8.97;;
17725;SDS011;8983;53.156;17.960;2023-04-24T00:43:11;14.07;;;9.00;;
17725;SDS011;8983;53.156;17.960;2023-04-24T00:45:39;13.87;;;9.63;;
17725;SDS011;8983;53.156;17.960;2023-04-24T00:48:09;11.20;;;9.43;;
17725;SDS011;8983;53.156;17.960;2023-04-24T00:50:38;13.50;;;9.97;;
17725;SDS011;8983;53.156;17.960;2023-04-24T00:53:06;9.70;;;8.63;;
17725;SDS011;8983;53.156;17.960;2023-04-24T00:55:34;10.80;;;9.23;;
17725;SDS011;8983;53.156;17.960;2023-04-24T00:58:04;12.87;;;9.70;;
17725;SDS011;8983;53.156;17.960;2023-04-24T01:00:32;12.83;;;9.60;;
17725;SDS011;8983;53.156;17.960;2023-04-24T01:03:00;13.07;;;9.90;;
17725;SDS011;8983;53.156;17.960;2023-04-24T01:05:33;12.17;;;9.73;;
17725;SDS011;8983;53.156;17.960;2023-04-24T01:08:02;13.27;;;9.63;;
17725;SDS011;8983;53.156;17.960;2023-04-24T01:10:30;14.57;;;9.43;;
17725;SDS011;8983;53.156;17.960;2023-04-24T01:13:00;11.43;;;9.40;;
17725;SDS011;8983;53.156;17.960;2023-04-24T01:15:28;11.43;;;9.40;;
17725;SDS011;8983;53.156;17.960;2023-04-24T01:17:56;14.63;;;9.73;;
17725;SDS011;8983;53.156;17.960;2023-04-24T01:20:24;13.33;;;9.57;;
17725;SDS011;8983;53.156;17.960;2023-04-24T01:22:55;13.50;;;9.17;;
17725;SDS011;8983;53.156;17.960;2023-04-24T01:25:24;13.80;;;10.00;;
17725;SDS011;8983;53.156;17.960;2023-04-24T01:27:54;13.73;;;9.07;;
17725;SDS011;8983;53.156;17.960;2023-04-24T01:30:22;11.93;;;8.67;;
17725;SDS011;8983;53.156;17.960;2023-04-24T01:32:51;13.63;;;9.40;;
17725;SDS011;8983;53.156;17.960;2023-04-24T01:35:19;15.57;;;10.30;;
17725;SDS011;8983;53.156;17.960;2023-04-24T01:37:47;13.93;;;10.67;;
17725;SDS011;8983;53.156;17.960;2023-04-24T01:40:17;15.43;;;10.40;;
17725;SDS011;8983;53.156;17.960;2023-04-24T01:42:45;17.37;;;9.47;;
17725;SDS011;8983;53.156;17.960;2023-04-24T01:45:13;14.33;;;10.10;;
17725;SDS011;8983;53.156;17.960;2023-04-24T01:47:42;11.70;;;9.57;;
17725;SDS011;8983;53.156;17.960;2023-04-24T01:50:10;14.97;;;10.07;;
17725;SDS011;8983;53.156;17.960;2023-04-24T01:52:38;15.27;;;9.87;;
17725;SDS011;8983;53.156;17.960;2023-04-24T01:55:07;11.50;;;9.77;;
17725;SDS011;8983;53.156;17.960;2023-04-24T01:57:37;12.47;;;9.77;;
17725;SDS011;8983;53.156;17.960;2023-04-24T02:00:05;13.83;;;9.17;;
17725;SDS011;8983;53.156;17.960;2023-04-24T02:02:34;15.70;;;8.93;;
17725;SDS011;8983;53.156;17.960;2023-04-24T02:05:05;10.80;;;8.87;;
17725;SDS011;8983;53.156;17.960;2023-04-24T02:07:33;14.30;;;9.47;;
17725;SDS011;8983;53.156;17.960;2023-04-24T02:10:02;14.67;;;9.20;;
17725;SDS011;8983;53.156;17.960;2023-04-24T02:12:31;10.50;;;9.00;;
17725;SDS011;8983;53.156;17.960;2023-04-24T02:15:01;10.17;;;8.73;;
17725;SDS011;8983;53.156;17.960;2023-04-24T02:17:29;12.27;;;9.17;;
17725;SDS011;8983;53.156;17.960;2023-04-24T02:19:57;10.43;;;9.33;;
17725;SDS011;8983;53.156;17.960;2023-04-24T02:22:25;10.83;;;8.53;;
17725;SDS011;8983;53.156;17.960;2023-04-24T02:24:53;10.60;;;8.57;;
17725;SDS011;8983;53.156;17.960;2023-04-24T02:27:22;12.03;;;8.77;;
17725;SDS011;8983;53.156;17.960;2023-04-24T02:29:50;10.43;;;8.33;;
17725;SDS011;8983;53.156;17.960;2023-04-24T02:32:20;13.43;;;8.40;;
17725;SDS011;8983;53.156;17.960;2023-04-24T02:34:48;12.10;;;9.23;;
17725;SDS011;8983;53.156;17.960;2023-04-24T02:37:16;15.03;;;9.47;;
17725;SDS011;8983;53.156;17.960;2023-04-24T02:39:44;11.27;;;9.33;;
17725;SDS011;8983;53.156;17.960;2023-04-24T02:42:12;11.40;;;9.17;;
17725;SDS011;8983;53.156;17.960;2023-04-24T02:44:41;11.93;;;9.47;;
17725;SDS011;8983;53.156;17.960;2023-04-24T02:47:09;16.67;;;10.83;;
17725;SDS011;8983;53.156;17.960;2023-04-24T02:49:39;11.97;;;9.67;;
17725;SDS011;8983;53.156;17.960;2023-04-24T02:52:08;9.57;;;8.57;;
17725;SDS011;8983;53.156;17.960;2023-04-24T02:54:36;15.93;;;9.20;;
17725;SDS011;8983;53.156;17.960;2023-04-24T02:57:05;12.27;;;9.30;;
17725;SDS011;8983;53.156;17.960;2023-04-24T02:59:33;11.97;;;9.50;;
17725;SDS011;8983;53.156;17.960;2023-04-24T03:02:01;14.57;;;10.23;;
17725;SDS011;8983;53.156;17.960;2023-04-24T03:04:29;12.37;;;8.93;;
17725;SDS011;8983;53.156;17.960;2023-04-24T03:07:00;10.40;;;8.97;;
17725;SDS011;8983;53.156;17.960;2023-04-24T03:09:28;13.70;;;9.43;;
17725;SDS011;8983;53.156;17.960;2023-04-24T03:11:56;13.43;;;9.80;;
17725;SDS011;8983;53.156;17.960;2023-04-24T03:14:24;11.67;;;9.20;;
17725;SDS011;8983;53.156;17.960;2023-04-24T03:16:52;10.77;;;9.10;;
17725;SDS011;8983;53.156;17.960;2023-04-24T03:19:20;12.83;;;9.43;;
17725;SDS011;8983;53.156;17.960;2023-04-24T03:21:49;13.97;;;9.97;;
17725;SDS011;8983;53.156;17.960;2023-04-24T03:24:18;13.87;;;9.70;;
17725;SDS011;8983;53.156;17.960;2023-04-24T03:26:46;12.73;;;9.50;;
17725;SDS011;8983;53.156;17.960;2023-04-24T03:29:14;11.50;;;9.40;;
17725;SDS011;8983;53.156;17.960;2023-04-24T03:31:42;14.20;;;9.77;;
17725;SDS011;8983;53.156;17.960;2023-04-24T03:34:10;12.50;;;9.77;;
17725;SDS011;8983;53.156;17.960;2023-04-24T03:36:39;11.30;;;9.07;;
17725;SDS011;8983;53.156;17.960;2023-04-24T03:39:07;13.33;;;10.23;;
17725;SDS011;8983;53.156;17.960;2023-04-24T03:41:36;12.33;;;9.30;;
17725;SDS011;8983;53.156;17.960;2023-04-24T03:44:04;13.93;;;9.47;;
17725;SDS011;8983;53.156;17.960;2023-04-24T03:46:32;11.83;;;9.27;;
17725;SDS011;8983;53.156;17.960;2023-04-24T03:49:01;11.73;;;10.00;;
17725;SDS011;8983;53.156;17.960;2023-04-24T03:51:29;13.53;;;9.73;;
17725;SDS011;8983;53.156;17.960;2023-04-24T03:53:57;12.77;;;9.93;;
17725;SDS011;8983;53.156;17.960;2023-04-24T03:56:25;15.63;;;10.73;;
17725;SDS011;8983;53.156;17.960;2023-04-24T03:58:55;11.83;;;10.03;;
17725;SDS011;8983;53.156;17.960;2023-04-24T04:01:23;11.40;;;9.83;;
17725;SDS011;8983;53.156;17.960;2023-04-24T04:03:51;13.00;;;10.13;;
17725;SDS011;8983;53.156;17.960;2023-04-24T04:06:19;13.17;;;10.03;;
17725;SDS011;8983;53.156;17.960;2023-04-24T04:08:47;14.10;;;9.83;;
17725;SDS011;8983;53.156;17.960;2023-04-24T04:11:15;13.50;;;9.87;;
17725;SDS011;8983;53.156;17.960;2023-04-24T04:13:43;13.60;;;9.27;;
17725;SDS011;8983;53.156;17.960;2023-04-24T04:16:15;13.27;;;10.03;;
17725;SDS011;8983;53.156;17.960;2023-04-24T04:18:44;14.33;;;10.77;;
17725;SDS011;8983;53.156;17.960;2023-04-24T04:21:12;14.13;;;10.63;;
17725;SDS011;8983;53.156;17.960;2023-04-24T04:23:40;17.13;;;12.40;;
17725;SDS011;8983;53.156;17.960;2023-04-24T04:26:08;16.67;;;12.73;;
17725;SDS011;8983;53.156;17.960;2023-04-24T04:28:36;21.00;;;13.33;;
17725;SDS011;8983;53.156;17.960;2023-04-24T04:31:05;21.20;;;12.73;;
17725;SDS011;8983;53.156;17.960;2023-04-24T04:33:35;24.70;;;14.07;;
17725;SDS011;8983;53.156;17.960;2023-04-24T04:36:05;23.57;;;14.90;;
17725;SDS011;8983;53.156;17.960;2023-04-24T04:38:34;21.93;;;14.03;;
17725;SDS011;8983;53.156;17.960;2023-04-24T04:41:03;22.23;;;13.17;;
17725;SDS011;8983;53.156;17.960;2023-04-24T04:43:31;23.90;;;13.47;;
17725;SDS011;8983;53.156;17.960;2023-04-24T04:46:00;17.03;;;12.70;;
17725;SDS011;8983;53.156;17.960;2023-04-24T04:48:29;19.20;;;12.43;;
17725;SDS011;8983;53.156;17.960;2023-04-24T04:51:00;16.40;;;12.10;;
17725;SDS011;8983;53.156;17.960;2023-04-24T04:53:28;19.97;;;12.53;;
17725;SDS011;8983;53.156;17.960;2023-04-24T04:55:56;22.60;;;12.43;;
17725;SDS011;8983;53.156;17.960;2023-04-24T04:58:24;21.30;;;12.50;;
17725;SDS011;8983;53.156;17.960;2023-04-24T05:00:52;23.60;;;13.73;;
17725;SDS011;8983;53.156;17.960;2023-04-24T05:03:20;19.77;;;13.03;;
17725;SDS011;8983;53.156;17.960;2023-04-24T05:05:48;18.30;;;12.80;;
17725;SDS011;8983;53.156;17.960;2023-04-24T05:08:17;16.10;;;12.90;;
17725;SDS011;8983;53.156;17.960;2023-04-24T05:10:53;27.57;;;15.00;;
17725;SDS011;8983;53.156;17.960;2023-04-24T05:13:21;20.80;;;13.50;;
17725;SDS011;8983;53.156;17.960;2023-04-24T05:15:52;19.33;;;13.10;;
17725;SDS011;8983;53.156;17.960;2023-04-24T05:18:20;17.97;;;12.10;;
17725;SDS011;8983;53.156;17.960;2023-04-24T05:20:48;15.50;;;11.00;;
17725;SDS011;8983;53.156;17.960;2023-04-24T05:23:17;14.77;;;10.07;;
17725;SDS011;8983;53.156;17.960;2023-04-24T05:25:45;15.60;;;10.00;;
17725;SDS011;8983;53.156;17.960;2023-04-24T05:28:13;15.13;;;10.83;;
17725;SDS011;8983;53.156;17.960;2023-04-24T05:30:41;17.57;;;11.27;;
17725;SDS011;8983;53.156;17.960;2023-04-24T05:33:09;15.17;;;11.17;;
17725;SDS011;8983;53.156;17.960;2023-04-24T05:35:37;17.73;;;11.67;;
17725;SDS011;8983;53.156;17.960;2023-04-24T05:38:11;13.80;;;11.40;;
17725;SDS011;8983;53.156;17.960;2023-04-24T05:40:41;16.70;;;11.03;;
17725;SDS011;8983;53.156;17.960;2023-04-24T05:43:09;15.10;;;12.97;;
17725;SDS011;8983;53.156;17.960;2023-04-24T05:45:37;18.73;;;12.83;;
17725;SDS011;8983;53.156;17.960;2023-04-24T05:48:05;18.60;;;12.53;;
17725;SDS011;8983;53.156;17.960;2023-04-24T05:50:33;20.10;;;13.27;;
17725;SDS011;8983;53.156;17.960;2023-04-24T05:53:02;20.47;;;13.90;;
17725;SDS011;8983;53.156;17.960;2023-04-24T05:55:33;19.63;;;12.73;;
17725;SDS011;8983;53.156;17.960;2023-04-24T05:58:03;18.40;;;12.67;;
17725;SDS011;8983;53.156;17.960;2023-04-24T06:00:31;21.63;;;14.10;;
17725;SDS011;8983;53.156;17.960;2023-04-24T06:03:00;21.57;;;14.67;;
17725;SDS011;8983;53.156;17.960;2023-04-24T06:05:30;19.30;;;12.47;;
17725;SDS011;8983;53.156;17.960;2023-04-24T06:07:58;18.43;;;13.23;;
17725;SDS011;8983;53.156;17.960;2023-04-24T06:10:26;17.70;;;12.63;;
17725;SDS011;8983;53.156;17.960;2023-04-24T06:12:54;16.47;;;12.93;;
17725;SDS011;8983;53.156;17.960;2023-04-24T06:15:29;15.70;;;12.67;;
17725;SDS011;8983;53.156;17.960;2023-04-24T06:17:57;17.20;;;11.87;;
17725;SDS011;8983;53.156;17.960;2023-04-24T06:20:26;16.37;;;12.23;;
17725;SDS011;8983;53.156;17.960;2023-04-24T06:22:54;16.80;;;13.20;;
17725;SDS011;8983;53.156;17.960;2023-04-24T06:25:24;18.17;;;12.70;;
17725;SDS011;8983;53.156;17.960;2023-04-24T06:27:53;17.80;;;12.47;;
17725;SDS011;8983;53.156;17.960;2023-04-24T06:30:22;15.87;;;11.03;;
17725;SDS011;8983;53.156;17.960;2023-04-24T06:32:52;21.17;;;12.53;;
17725;SDS011;8983;53.156;17.960;2023-04-24T06:35:35;17.03;;;12.07;;
17725;SDS011;8983;53.156;17.960;2023-04-24T06:38:04;17.00;;;12.17;;
17725;SDS011;8983;53.156;17.960;2023-04-24T06:40:32;21.37;;;12.77;;
17725;SDS011;8983;53.156;17.960;2023-04-24T06:43:00;15.90;;;11.87;;
17725;SDS011;8983;53.156;17.960;2023-04-24T06:45:29;14.13;;;11.03;;
17725;SDS011;8983;53.156;17.960;2023-04-24T06:47:58;15.70;;;11.33;;
17725;SDS011;8983;53.156;17.960;2023-04-24T06:50:27;15.43;;;10.33;;
17725;SDS011;8983;53.156;17.960;2023-04-24T06:52:55;14.10;;;11.23;;
17725;SDS011;8983;53.156;17.960;2023-04-24T06:55:23;11.87;;;9.47;;
17725;SDS011;8983;53.156;17.960;2023-04-24T06:57:51;15.93;;;10.13;;
17725;SDS011;8983;53.156;17.960;2023-04-24T07:00:19;12.53;;;9.47;;
17725;SDS011;8983;53.156;17.960;2023-04-24T07:02:47;13.93;;;9.23;;
17725;SDS011;8983;53.156;17.960;2023-04-24T07:05:17;10.57;;;8.07;;
17725;SDS011;8983;53.156;17.960;2023-04-24T07:07:46;12.87;;;8.83;;
17725;SDS011;8983;53.156;17.960;2023-04-24T07:10:15;10.20;;;8.27;;
17725;SDS011;8983;53.156;17.960;2023-04-24T07:12:44;10.33;;;8.27;;
17725;SDS011;8983;53.156;17.960;2023-04-24T07:15:12;12.03;;;8.50;;
17725;SDS011;8983;53.156;17.960;2023-04-24T07:17:41;12.17;;;9.07;;
17725;SDS011;8983;53.156;17.960;2023-04-24T07:20:10;11.97;;;9.03;;
17725;SDS011;8983;53.156;17.960;2023-04-24T07:22:40;10.40;;;7.80;;
17725;SDS011;8983;53.156;17.960;2023-04-24T07:25:08;13.73;;;9.17;;
17725;SDS011;8983;53.156;17.960;2023-04-24T07:27:36;10.20;;;8.07;;
17725;SDS011;8983;53.156;17.960;2023-04-24T07:30:05;12.93;;;7.80;;
17725;SDS011;8983;53.156;17.960;2023-04-24T07:32:34;11.83;;;7.80;;
17725;SDS011;8983;53.156;17.960;2023-04-24T07:35:02;9.83;;;6.70;;
17725;SDS011;8983;53.156;17.960;2023-04-24T07:37:31;9.37;;;7.23;;
17725;SDS011;8983;53.156;17.960;2023-04-24T07:40:00;9.93;;;7.40;;
17725;SDS011;8983;53.156;17.960;2023-04-24T07:42:29;8.90;;;7.53;;
17725;SDS011;8983;53.156;17.960;2023-04-24T07:44:57;9.10;;;7.27;;
17725;SDS011;8983;53.156;17.960;2023-04-24T07:47:26;8.70;;;6.83;;
17725;SDS011;8983;53.156;17.960;2023-04-24T07:49:54;13.23;;;7.30;;
17725;SDS011;8983;53.156;17.960;2023-04-24T07:52:22;8.83;;;7.13;;
17725;SDS011;8983;53.156;17.960;2023-04-24T07:54:50;8.37;;;6.13;;
17725;SDS011;8983;53.156;17.960;2023-04-24T07:57:25;8.40;;;6.23;;
17725;SDS011;8983;53.156;17.960;2023-04-24T07:59:54;9.03;;;6.80;;
17725;SDS011;8983;53.156;17.960;2023-04-24T08:02:22;11.40;;;6.20;;
17725;SDS011;8983;53.156;17.960;2023-04-24T08:04:53;10.10;;;6.40;;
17725;SDS011;8983;53.156;17.960;2023-04-24T08:07:23;7.00;;;5.97;;
17725;SDS011;8983;53.156;17.960;2023-04-24T08:09:51;8.53;;;6.23;;
17725;SDS011;8983;53.156;17.960;2023-04-24T08:12:19;7.00;;;5.43;;
17725;SDS011;8983;53.156;17.960;2023-04-24T08:14:48;6.63;;;5.87;;
17725;SDS011;8983;53.156;17.960;2023-04-24T08:17:17;7.87;;;6.23;;
17725;SDS011;8983;53.156;17.960;2023-04-24T08:19:45;8.13;;;5.77;;
17725;SDS011;8983;53.156;17.960;2023-04-24T08:22:14;6.17;;;4.97;;
17725;SDS011;8983;53.156;17.960;2023-04-24T08:24:42;8.03;;;5.80;;
17725;SDS011;8983;53.156;17.960;2023-04-24T08:27:10;7.33;;;5.63;;
17725;SDS011;8983;53.156;17.960;2023-04-24T08:29:38;5.20;;;4.70;;
17725;SDS011;8983;53.156;17.960;2023-04-24T08:32:09;5.57;;;5.03;;
17725;SDS011;8983;53.156;17.960;2023-04-24T08:34:37;5.57;;;4.43;;
17725;SDS011;8983;53.156;17.960;2023-04-24T08:37:05;6.33;;;5.43;;
17725;SDS011;8983;53.156;17.960;2023-04-24T08:39:33;6.10;;;4.70;;
17725;SDS011;8983;53.156;17.960;2023-04-24T08:42:01;6.23;;;4.50;;
17725;SDS011;8983;53.156;17.960;2023-04-24T08:44:34;6.40;;;5.10;;
17725;SDS011;8983;53.156;17.960;2023-04-24T08:47:03;8.17;;;4.67;;
17725;SDS011;8983;53.156;17.960;2023-04-24T08:49:33;6.07;;;4.97;;
17725;SDS011;8983;53.156;17.960;2023-04-24T08:52:04;6.20;;;5.13;;
17725;SDS011;8983;53.156;17.960;2023-04-24T08:54:33;6.10;;;5.17;;
17725;SDS011;8983;53.156;17.960;2023-04-24T08:57:02;7.07;;;4.90;;
17725;SDS011;8983;53.156;17.960;2023-04-24T08:59:31;9.43;;;5.60;;
17725;SDS011;8983;53.156;17.960;2023-04-24T09:01:59;6.30;;;4.97;;
17725;SDS011;8983;53.156;17.960;2023-04-24T09:04:30;7.77;;;5.00;;
17725;SDS011;8983;53.156;17.960;2023-04-24T09:07:02;7.10;;;6.00;;
17725;SDS011;8983;53.156;17.960;2023-04-24T09:09:33;6.93;;;5.60;;
17725;SDS011;8983;53.156;17.960;2023-04-24T09:12:03;8.23;;;5.30;;
17725;SDS011;8983;53.156;17.960;2023-04-24T09:14:31;6.10;;;4.73;;
17725;SDS011;8983;53.156;17.960;2023-04-24T09:17:02;7.70;;;5.43;;
17725;SDS011;8983;53.156;17.960;2023-04-24T09:19:30;8.40;;;5.20;;
17725;SDS011;8983;53.156;17.960;2023-04-24T09:21:58;11.37;;;5.63;;
17725;SDS011;8983;53.156;17.960;2023-04-24T09:24:27;7.50;;;5.50;;
17725;SDS011;8983;53.156;17.960;2023-04-24T09:26:56;6.77;;;5.17;;
17725;SDS011;8983;53.156;17.960;2023-04-24T09:29:25;6.17;;;5.00;;
17725;SDS011;8983;53.156;17.960;2023-04-24T09:31:53;7.70;;;5.00;;
17725;SDS011;8983;53.156;17.960;2023-04-24T09:34:22;8.10;;;5.30;;
17725;SDS011;8983;53.156;17.960;2023-04-24T09:36:51;7.90;;;5.20;;
17725;SDS011;8983;53.156;17.960;2023-04-24T09:39:19;8.07;;;5.20;;
17725;SDS011;8983;53.156;17.960;2023-04-24T09:41:49;8.17;;;5.50;;
17725;SDS011;8983;53.156;17.960;2023-04-24T09:44:18;8.53;;;5.20;;
17725;SDS011;8983;53.156;17.960;2023-04-24T09:46:49;6.03;;;5.43;;
17725;SDS011;8983;53.156;17.960;2023-04-24T09:49:21;6.57;;;5.63;;
17725;SDS011;8983;53.156;17.960;2023-04-24T09:51:51;6.87;;;5.10;;
17725;SDS011;8983;53.156;17.960;2023-04-24T09:54:19;6.30;;;5.30;;
17725;SDS011;8983;53.156;17.960;2023-04-24T09:56:50;5.67;;;5.10;;
17725;SDS011;8983;53.156;17.960;2023-04-24T09:59:19;5.57;;;5.00;;
17725;SDS011;8983;53.156;17.960;2023-04-24T10:01:47;11.43;;;5.97;;
17725;SDS011;8983;53.156;17.960;2023-04-24T10:04:17;8.87;;;5.50;;
17725;SDS011;8983;53.156;17.960;2023-04-24T10:06:46;5.87;;;5.07;;
17725;SDS011;8983;53.156;17.960;2023-04-24T10:09:16;8.17;;;6.20;;
17725;SDS011;8983;53.156;17.960;2023-04-24T10:11:45;8.13;;;5.93;;
17725;SDS011;8983;53.156;17.960;2023-04-24T10:14:16;8.13;;;5.03;;
17725;SDS011;8983;53.156;17.960;2023-04-24T10:16:47;6.10;;;5.40;;
17725;SDS011;8983;53.156;17.960;2023-04-24T10:19:17;7.90;;;5.47;;
17725;SDS011;8983;53.156;17.960;2023-04-24T10:21:46;7.10;;;5.13;;
17725;SDS011;8983;53.156;17.960;2023-04-24T10:24:15;6.10;;;4.73;;
17725;SDS011;8983;53.156;17.960;2023-04-24T10:26:44;6.78;;;5.30;;
17725;SDS011;8983;53.156;17.960;2023-04-24T10:29:16;6.20;;;5.40;;
17725;SDS011;8983;53.156;17.960;2023-04-24T10:31:45;6.70;;;5.43;;
17725;SDS011;8983;53.156;17.960;2023-04-24T10:34:14;6.17;;;5.43;;
17725;SDS011;8983;53.156;17.960;2023-04-24T10:36:45;7.28;;;5.55;;
17725;SDS011;8983;53.156;17.960;2023-04-24T10:39:16;7.82;;;5.43;;
17725;SDS011;8983;53.156;17.960;2023-04-24T10:41:53;7.80;;;5.40;;
17725;SDS011;8983;53.156;17.960;2023-04-24T10:44:25;11.77;;;6.25;;
17725;SDS011;8983;53.156;17.960;2023-04-24T10:47:03;6.35;;;5.60;;
17725;SDS011;8983;53.156;17.960;2023-04-24T10:49:31;6.88;;;4.63;;
17725;SDS011;8983;53.156;17.960;2023-04-24T10:52:00;5.70;;;5.00;;
17725;SDS011;8983;53.156;17.960;2023-04-24T10:54:34;6.68;;;5.47;;
17725;SDS011;8983;53.156;17.960;2023-04-24T11:00:13;6.20;;;4.97;;
17725;SDS011;8983;53.156;17.960;2023-04-24T11:02:41;7.28;;;5.13;;
17725;SDS011;8983;53.156;17.960;2023-04-24T11:05:15;6.00;;;4.40;;
17725;SDS011;8983;53.156;17.960;2023-04-24T11:10:38;6.30;;;5.35;;
17725;SDS011;8983;53.156;17.960;2023-04-24T11:13:14;6.47;;;4.97;;
17725;SDS011;8983;53.156;17.960;2023-04-24T11:15:44;5.97;;;4.55;;
17725;SDS011;8983;53.156;17.960;2023-04-24T11:18:36;8.18;;;5.03;;
17725;SDS011;8983;53.156;17.960;2023-04-24T11:21:09;7.65;;;4.93;;
17725;SDS011;8983;53.156;17.960;2023-04-24T11:23:38;6.50;;;5.15;;
17725;SDS011;8983;53.156;17.960;2023-04-24T11:26:10;7.05;;;5.45;;
17725;SDS011;8983;53.156;17.960;2023-04-24T11:28:44;8.00;;;6.80;;
17725;SDS011;8983;53.156;17.960;2023-04-24T11:34:08;9.65;;;7.45;;
17725;SDS011;8983;53.156;17.960;2023-04-24T11:36:38;9.18;;;6.93;;
17725;SDS011;8983;53.156;17.960;2023-04-24T11:39:07;11.88;;;6.95;;
17725;SDS011;8983;53.156;17.960;2023-04-24T11:41:36;9.95;;;7.68;;
17725;SDS011;8983;53.156;17.960;2023-04-24T11:44:05;4.38;;;3.83;;
17725;SDS011;8983;53.156;17.960;2023-04-24T11:46:34;10.05;;;5.28;;
17725;SDS011;8983;53.156;17.960;2023-04-24T11:49:06;5.10;;;4.70;;
17725;SDS011;8983;53.156;17.960;2023-04-24T11:51:34;7.95;;;4.80;;
17725;SDS011;8983;53.156;17.960;2023-04-24T11:54:18;7.57;;;4.85;;
17725;SDS011;8983;53.156;17.960;2023-04-24T11:56:46;5.68;;;5.00;;
17725;SDS011;8983;53.156;17.960;2023-04-24T11:59:14;3.90;;;3.38;;
17725;SDS011;8983;53.156;17.960;2023-04-24T12:01:43;7.63;;;5.50;;
17725;SDS011;8983;53.156;17.960;2023-04-24T12:04:13;6.43;;;5.05;;
17725;SDS011;8983;53.156;17.960;2023-04-24T12:09:28;8.27;;;5.28;;
17725;SDS011;8983;53.156;17.960;2023-04-24T12:12:07;5.70;;;4.82;;
17725;SDS011;8983;53.156;17.960;2023-04-24T12:14:44;6.63;;;5.43;;
17725;SDS011;8983;53.156;17.960;2023-04-24T12:17:15;6.25;;;5.22;;
17725;SDS011;8983;53.156;17.960;2023-04-24T12:19:47;6.13;;;5.53;;
17725;SDS011;8983;53.156;17.960;2023-04-24T12:22:16;6.20;;;4.95;;
17725;SDS011;8983;53.156;17.960;2023-04-24T12:25:00;5.82;;;4.50;;
17725;SDS011;8983;53.156;17.960;2023-04-24T12:27:30;4.72;;;4.25;;
17725;SDS011;8983;53.156;17.960;2023-04-24T12:30:03;7.47;;;4.55;;
17725;SDS011;8983;53.156;17.960;2023-04-24T12:32:32;5.75;;;4.95;;
17725;SDS011;8983;53.156;17.960;2023-04-24T12:35:03;6.20;;;5.32;;
17725;SDS011;8983;53.156;17.960;2023-04-24T12:37:33;7.65;;;5.05;;
17725;SDS011;8983;53.156;17.960;2023-04-24T12:40:03;9.40;;;4.53;;
17725;SDS011;8983;53.156;17.960;2023-04-24T12:42:34;6.38;;;5.40;;
17725;SDS011;8983;53.156;17.960;2023-04-24T12:45:09;8.35;;;5.85;;
17725;SDS011;8983;53.156;17.960;2023-04-24T12:47:38;8.00;;;6.38;;
17725;SDS011;8983;53.156;17.960;2023-04-24T12:50:09;8.63;;;6.63;;
17725;SDS011;8983;53.156;17.960;2023-04-24T12:52:39;8.30;;;6.68;;
17725;SDS011;8983;53.156;17.960;2023-04-24T12:55:08;8.70;;;7.53;;
17725;SDS011;8983;53.156;17.960;2023-04-24T12:57:39;8.48;;;6.28;;
17725;SDS011;8983;53.156;17.960;2023-04-24T13:00:07;8.52;;;7.05;;
17725;SDS011;8983;53.156;17.960;2023-04-24T13:02:36;5.13;;;4.40;;
17725;SDS011;8983;53.156;17.960;2023-04-24T13:05:05;9.90;;;6.70;;
17725;SDS011;8983;53.156;17.960;2023-04-24T13:07:35;7.30;;;6.00;;
17725;SDS011;8983;53.156;17.960;2023-04-24T13:10:03;6.15;;;5.50;;
17725;SDS011;8983;53.156;17.960;2023-04-24T13:12:32;6.93;;;5.20;;
17725;SDS011;8983;53.156;17.960;2023-04-24T13:15:00;8.18;;;5.22;;
17725;SDS011;8983;53.156;17.960;2023-04-24T13:17:28;6.18;;;5.45;;
17725;SDS011;8983;53.156;17.960;2023-04-24T13:19:56;11.48;;;5.80;;
17725;SDS011;8983;53.156;17.960;2023-04-24T13:22:24;5.93;;;5.32;;
17725;SDS011;8983;53.156;17.960;2023-04-24T13:24:53;6.85;;;5.35;;
17725;SDS011;8983;53.156;17.960;2023-04-24T13:27:22;7.65;;;5.68;;
17725;SDS011;8983;53.156;17.960;2023-04-24T13:29:50;7.32;;;5.45;;
17725;SDS011;8983;53.156;17.960;2023-04-24T13:32:18;6.47;;;5.50;;
17725;SDS011;8983;53.156;17.960;2023-04-24T13:34:46;7.53;;;5.25;;
17725;SDS011;8983;53.156;17.960;2023-04-24T13:37:14;8.25;;;6.18;;
17725;SDS011;8983;53.156;17.960;2023-04-24T13:39:42;5.68;;;4.90;;
17725;SDS011;8983;53.156;17.960;2023-04-24T13:42:12;8.38;;;5.90;;
17725;SDS011;8983;53.156;17.960;2023-04-24T13:44:40;6.47;;;4.80;;
17725;SDS011;8983;53.156;17.960;2023-04-24T13:47:09;5.60;;;4.70;;
17725;SDS011;8983;53.156;17.960;2023-04-24T13:49:37;5.38;;;3.75;;
17725;SDS011;8983;53.156;17.960;2023-04-24T13:52:05;4.63;;;3.58;;
17725;SDS011;8983;53.156;17.960;2023-04-24T13:54:33;7.43;;;4.00;;
17725;SDS011;8983;53.156;17.960;2023-04-24T13:57:01;5.97;;;4.53;;
17725;SDS011;8983;53.156;17.960;2023-04-24T13:59:32;6.80;;;4.43;;
17725;SDS011;8983;53.156;17.960;2023-04-24T14:02:00;5.63;;;4.30;;
17725;SDS011;8983;53.156;17.960;2023-04-24T14:04:28;7.63;;;5.20;;
17725;SDS011;8983;53.156;17.960;2023-04-24T14:06:56;8.43;;;4.97;;
17725;SDS011;8983;53.156;17.960;2023-04-24T14:09:24;5.95;;;4.97;;
17725;SDS011;8983;53.156;17.960;2023-04-24T14:11:52;9.43;;;5.63;;
17725;SDS011;8983;53.156;17.960;2023-04-24T14:14:21;10.13;;;6.32;;
17725;SDS011;8983;53.156;17.960;2023-04-24T14:16:50;9.77;;;5.82;;
17725;SDS011;8983;53.156;17.960;2023-04-24T14:19:18;7.13;;;5.45;;
17725;SDS011;8983;53.156;17.960;2023-04-24T14:21:46;7.75;;;5.18;;
17725;SDS011;8983;53.156;17.960;2023-04-24T14:24:14;7.63;;;5.35;;
17725;SDS011;8983;53.156;17.960;2023-04-24T14:26:42;5.35;;;4.85;;
17725;SDS011;8983;53.156;17.960;2023-04-24T14:29:11;6.72;;;5.05;;
17725;SDS011;8983;53.156;17.960;2023-04-24T14:31:40;6.40;;;5.75;;
17725;SDS011;8983;53.156;17.960;2023-04-24T14:34:10;6.30;;;4.38;;
17725;SDS011;8983;53.156;17.960;2023-04-24T14:36:38;5.32;;;4.47;;
17725;SDS011;8983;53.156;17.960;2023-04-24T14:39:07;5.45;;;3.78;;
17725;SDS011;8983;53.156;17.960;2023-04-24T14:41:35;3.67;;;3.30;;
17725;SDS011;8983;53.156;17.960;2023-04-24T14:44:05;5.32;;;3.85;;
17725;SDS011;8983;53.156;17.960;2023-04-24T14:46:34;8.77;;;5.22;;
17725;SDS011;8983;53.156;17.960;2023-04-24T14:49:02;8.80;;;4.28;;
17725;SDS011;8983;53.156;17.960;2023-04-24T14:51:31;4.60;;;3.45;;
17725;SDS011;8983;53.156;17.960;2023-04-24T14:53:59;4.88;;;4.00;;
17725;SDS011;8983;53.156;17.960;2023-04-24T14:56:27;4.82;;;3.97;;
17725;SDS011;8983;53.156;17.960;2023-04-24T14:58:55;5.32;;;4.18;;
17725;SDS011;8983;53.156;17.960;2023-04-24T15:01:23;3.88;;;3.35;;